sensor_id;sensor_type;location;lat;lon;timestamp;temperature;humidity
27200;DHT22;14714;48.106;11.546;2022-07-21T00:00:55;20.40;99.90
27200;DHT22;14714;48.106;11.546;2022-07-21T00:03:22;20.30;99.90
27200;DHT22;14714;48.106;11.546;2022-07-21T00:05:48;20.30;99.90
27200;DHT22;14714;48.106;11.546;2022-07-21T00:08:15;20.30;99.90
27200;DHT22;14714;48.106;11.546;2022-07-21T00:10:42;20.20;99.90
27200;DHT22;14714;48.106;11.546;2022-07-21T00:13:09;20.20;99.90
27200;DHT22;14714;48.106;11.546;2022-07-21T00:15:36;20.20;99.90
27200;DHT22;14714;48.106;11.546;2022-07-21T00:18:03;20.10;99.90
27200;DHT22;14714;48.106;11.546;2022-07-21T00:20:30;20.10;99.90
27200;DHT22;14714;48.106;11.546;2022-07-21T00:22:57;20.10;99.90
27200;DHT22;14714;48.106;11.546;2022-07-21T00:25:25;20.00;99.90
27200;DHT22;14714;48.106;11.546;2022-07-21T00:27:59;20.00;99.90
27200;DHT22;14714;48.106;11.546;2022-07-21T00:30:26;20.00;99.90
27200;DHT22;14714;48.106;11.546;2022-07-21T00:32:53;19.90;99.90
27200;DHT22;14714;48.106;11.546;2022-07-21T00:35:20;19.90;99.90
27200;DHT22;14714;48.106;11.546;2022-07-21T00:37:46;19.90;99.90
27200;DHT22;14714;48.106;11.546;2022-07-21T00:40:14;19.90;99.90
27200;DHT22;14714;48.106;11.546;2022-07-21T00:42:43;19.80;99.90
27200;DHT22;14714;48.106;11.546;2022-07-21T00:45:11;19.80;99.90
27200;DHT22;14714;48.106;11.546;2022-07-21T00:47:38;19.80;99.90
27200;DHT22;14714;48.106;11.546;2022-07-21T00:50:08;19.90;99.90
27200;DHT22;14714;48.106;11.546;2022-07-21T00:52:35;19.80;99.90
27200;DHT22;14714;48.106;11.546;2022-07-21T00:55:03;19.90;99.90
27200;DHT22;14714;48.106;11.546;2022-07-21T00:57:31;19.90;99.90
27200;DHT22;14714;48.106;11.546;2022-07-21T00:59:58;19.90;99.90
27200;DHT22;14714;48.106;11.546;2022-07-21T01:02:25;19.90;99.90
27200;DHT22;14714;48.106;11.546;2022-07-21T01:04:53;19.90;99.90
27200;DHT22;14714;48.106;11.546;2022-07-21T01:07:20;19.90;99.90
27200;DHT22;14714;48.106;11.546;2022-07-21T01:09:47;19.90;99.90
27200;DHT22;14714;48.106;11.546;2022-07-21T01:12:14;19.90;99.90
27200;DHT22;14714;48.106;11.546;2022-07-21T01:14:41;19.80;99.90
27200;DHT22;14714;48.106;11.546;2022-07-21T01:17:08;19.90;99.90
27200;DHT22;14714;48.106;11.546;2022-07-21T01:19:35;19.80;99.90
27200;DHT22;14714;48.106;11.546;2022-07-21T01:22:02;19.80;99.90
27200;DHT22;14714;48.106;11.546;2022-07-21T01:24:29;19.80;99.90
27200;DHT22;14714;48.106;11.546;2022-07-21T01:26:56;19.80;99.90
27200;DHT22;14714;48.106;11.546;2022-07-21T01:29:24;19.70;99.90
27200;DHT22;14714;48.106;11.546;2022-07-21T01:31:51;19.70;99.90
27200;DHT22;14714;48.106;11.546;2022-07-21T01:34:18;19.70;99.90
27200;DHT22;14714;48.106;11.546;2022-07-21T01:36:45;19.60;99.90
27200;DHT22;14714;48.106;11.546;2022-07-21T01:39:12;19.60;99.90
27200;DHT22;14714;48.106;11.546;2022-07-21T01:41:58;19.60;99.90
27200;DHT22;14714;48.106;11.546;2022-07-21T01:44:25;19.60;99.90
27200;DHT22;14714;48.106;11.546;2022-07-21T01:46:52;19.60;99.90
27200;DHT22;14714;48.106;11.546;2022-07-21T01:49:20;19.50;99.90
27200;DHT22;14714;48.106;11.546;2022-07-21T01:51:48;19.50;99.90
27200;DHT22;14714;48.106;11.546;2022-07-21T01:54:15;19.50;99.90
27200;DHT22;14714;48.106;11.546;2022-07-21T01:56:49;19.50;99.90
27200;DHT22;14714;48.106;11.546;2022-07-21T01:59:16;19.50;99.90
27200;DHT22;14714;48.106;11.546;2022-07-21T02:01:43;19.50;99.90
27200;DHT22;14714;48.106;11.546;2022-07-21T02:04:10;19.50;99.90
27200;DHT22;14714;48.106;11.546;2022-07-21T02:06:37;19.50;99.90
27200;DHT22;14714;48.106;11.546;2022-07-21T02:09:04;19.50;99.90
27200;DHT22;14714;48.106;11.546;2022-07-21T02:11:33;19.50;99.90
27200;DHT22;14714;48.106;11.546;2022-07-21T02:14:00;19.50;99.90
27200;DHT22;14714;48.106;11.546;2022-07-21T02:16:28;19.60;99.90
27200;DHT22;14714;48.106;11.546;2022-07-21T02:18:55;19.60;99.90
27200;DHT22;14714;48.106;11.546;2022-07-21T02:21:23;19.60;99.90
27200;DHT22;14714;48.106;11.546;2022-07-21T02:23:50;19.60;99.90
27200;DHT22;14714;48.106;11.546;2022-07-21T02:26:17;19.60;99.90
27200;DHT22;14714;48.106;11.546;2022-07-21T02:28:44;19.60;99.90
27200;DHT22;14714;48.106;11.546;2022-07-21T02:31:11;19.60;99.90
27200;DHT22;14714;48.106;11.546;2022-07-21T02:33:38;19.70;99.90
27200;DHT22;14714;48.106;11.546;2022-07-21T02:36:05;19.70;99.90
27200;DHT22;14714;48.106;11.546;2022-07-21T02:38:32;19.70;99.90
27200;DHT22;14714;48.106;11.546;2022-07-21T02:40:59;19.70;99.90
27200;DHT22;14714;48.106;11.546;2022-07-21T02:43:26;19.80;99.90
27200;DHT22;14714;48.106;11.546;2022-07-21T02:45:53;19.80;99.90
27200;DHT22;14714;48.106;11.546;2022-07-21T02:48:19;19.80;99.90
27200;DHT22;14714;48.106;11.546;2022-07-21T02:50:46;19.70;99.90
27200;DHT22;14714;48.106;11.546;2022-07-21T02:53:16;19.70;99.90
27200;DHT22;14714;48.106;11.546;2022-07-21T02:55:47;19.70;99.90
27200;DHT22;14714;48.106;11.546;2022-07-21T02:58:17;19.70;99.90
27200;DHT22;14714;48.106;11.546;2022-07-21T03:00:51;19.70;99.90
27200;DHT22;14714;48.106;11.546;2022-07-21T03:03:20;19.70;99.90
27200;DHT22;14714;48.106;11.546;2022-07-21T03:05:47;19.70;99.90
27200;DHT22;14714;48.106;11.546;2022-07-21T03:08:15;19.70;99.90
27200;DHT22;14714;48.106;11.546;2022-07-21T03:10:42;19.70;99.90
27200;DHT22;14714;48.106;11.546;2022-07-21T03:13:09;19.70;99.90
27200;DHT22;14714;48.106;11.546;2022-07-21T03:15:37;19.70;99.90
27200;DHT22;14714;48.106;11.546;2022-07-21T03:18:04;19.70;99.90
27200;DHT22;14714;48.106;11.546;2022-07-21T03:20:34;19.70;99.90
27200;DHT22;14714;48.106;11.546;2022-07-21T03:23:01;19.60;99.90
27200;DHT22;14714;48.106;11.546;2022-07-21T03:25:29;19.60;99.90
27200;DHT22;14714;48.106;11.546;2022-07-21T03:27:56;19.60;99.90
27200;DHT22;14714;48.106;11.546;2022-07-21T03:30:23;19.60;99.90
27200;DHT22;14714;48.106;11.546;2022-07-21T03:32:51;19.60;99.90
27200;DHT22;14714;48.106;11.546;2022-07-21T03:35:18;19.60;99.90
27200;DHT22;14714;48.106;11.546;2022-07-21T03:37:51;19.50;99.90
27200;DHT22;14714;48.106;11.546;2022-07-21T03:40:21;19.60;99.90
27200;DHT22;14714;48.106;11.546;2022-07-21T03:42:52;19.50;99.90
27200;DHT22;14714;48.106;11.546;2022-07-21T03:45:20;19.60;99.90
27200;DHT22;14714;48.106;11.546;2022-07-21T03:47:47;19.60;99.90
27200;DHT22;14714;48.106;11.546;2022-07-21T03:50:14;19.60;99.90
27200;DHT22;14714;48.106;11.546;2022-07-21T03:52:44;19.70;99.90
27200;DHT22;14714;48.106;11.546;2022-07-21T03:55:12;19.70;99.90
27200;DHT22;14714;48.106;11.546;2022-07-21T03:57:58;19.70;99.90
27200;DHT22;14714;48.106;11.546;2022-07-21T04:00:40;19.80;99.90
27200;DHT22;14714;48.106;11.546;2022-07-21T04:03:08;19.80;99.90
27200;DHT22;14714;48.106;11.546;2022-07-21T04:05:36;19.80;99.90
27200;DHT22;14714;48.106;11.546;2022-07-21T04:08:03;19.90;99.90
27200;DHT22;14714;48.106;11.546;2022-07-21T04:10:33;19.90;99.90
27200;DHT22;14714;48.106;11.546;2022-07-21T04:13:03;19.90;99.90
27200;DHT22;14714;48.106;11.546;2022-07-21T04:15:30;19.90;99.90
27200;DHT22;14714;48.106;11.546;2022-07-21T04:17:58;19.90;99.90
27200;DHT22;14714;48.106;11.546;2022-07-21T04:20:25;19.90;99.90
27200;DHT22;14714;48.106;11.546;2022-07-21T04:22:52;19.90;99.90
27200;DHT22;14714;48.106;11.546;2022-07-21T04:25:19;19.90;99.90
27200;DHT22;14714;48.106;11.546;2022-07-21T04:27:47;20.00;99.90
27200;DHT22;14714;48.106;11.546;2022-07-21T04:30:17;19.90;99.90
27200;DHT22;14714;48.106;11.546;2022-07-21T04:32:45;20.00;99.90
27200;DHT22;14714;48.106;11.546;2022-07-21T04:35:12;20.00;99.90
27200;DHT22;14714;48.106;11.546;2022-07-21T04:37:39;20.00;99.90
27200;DHT22;14714;48.106;11.546;2022-07-21T04:40:09;20.00;99.90
27200;DHT22;14714;48.106;11.546;2022-07-21T04:42:36;20.00;99.90
27200;DHT22;14714;48.106;11.546;2022-07-21T04:45:05;20.00;99.90
27200;DHT22;14714;48.106;11.546;2022-07-21T04:47:32;20.00;99.90
27200;DHT22;14714;48.106;11.546;2022-07-21T04:50:09;20.00;99.90
27200;DHT22;14714;48.106;11.546;2022-07-21T04:52:36;20.00;99.90
27200;DHT22;14714;48.106;11.546;2022-07-21T04:55:03;20.00;99.90
27200;DHT22;14714;48.106;11.546;2022-07-21T04:57:30;20.10;99.90
27200;DHT22;14714;48.106;11.546;2022-07-21T04:59:57;20.10;99.90
27200;DHT22;14714;48.106;11.546;2022-07-21T05:02:23;20.10;99.90
27200;DHT22;14714;48.106;11.546;2022-07-21T05:04:51;20.10;99.90
27200;DHT22;14714;48.106;11.546;2022-07-21T05:07:17;20.20;99.90
27200;DHT22;14714;48.106;11.546;2022-07-21T05:09:44;20.20;99.90
27200;DHT22;14714;48.106;11.546;2022-07-21T05:12:11;20.20;99.90
27200;DHT22;14714;48.106;11.546;2022-07-21T05:14:38;20.20;99.90
27200;DHT22;14714;48.106;11.546;2022-07-21T05:17:05;20.30;99.90
27200;DHT22;14714;48.106;11.546;2022-07-21T05:19:32;20.30;99.90
27200;DHT22;14714;48.106;11.546;2022-07-21T05:21:58;20.30;99.90
27200;DHT22;14714;48.106;11.546;2022-07-21T05:24:25;20.40;99.90
27200;DHT22;14714;48.106;11.546;2022-07-21T05:26:52;20.40;99.90
27200;DHT22;14714;48.106;11.546;2022-07-21T05:29:19;20.50;99.90
27200;DHT22;14714;48.106;11.546;2022-07-21T05:31:45;20.50;99.90
27200;DHT22;14714;48.106;11.546;2022-07-21T05:34:12;20.60;99.90
27200;DHT22;14714;48.106;11.546;2022-07-21T05:36:39;20.70;99.90
27200;DHT22;14714;48.106;11.546;2022-07-21T05:39:06;20.80;99.90
27200;DHT22;14714;48.106;11.546;2022-07-21T05:41:33;21.00;99.90
27200;DHT22;14714;48.106;11.546;2022-07-21T05:44:00;21.20;99.90
27200;DHT22;14714;48.106;11.546;2022-07-21T05:46:26;21.40;99.90
27200;DHT22;14714;48.106;11.546;2022-07-21T05:48:54;21.60;99.90
27200;DHT22;14714;48.106;11.546;2022-07-21T05:51:21;21.70;99.90
27200;DHT22;14714;48.106;11.546;2022-07-21T05:53:48;21.90;99.90
27200;DHT22;14714;48.106;11.546;2022-07-21T05:56:15;22.00;99.90
27200;DHT22;14714;48.106;11.546;2022-07-21T05:58:42;22.10;99.90
27200;DHT22;14714;48.106;11.546;2022-07-21T06:01:09;22.30;99.90
27200;DHT22;14714;48.106;11.546;2022-07-21T06:03:41;22.40;99.90
27200;DHT22;14714;48.106;11.546;2022-07-21T06:06:09;22.60;99.90
27200;DHT22;14714;48.106;11.546;2022-07-21T06:08:37;22.70;99.90
27200;DHT22;14714;48.106;11.546;2022-07-21T06:11:04;22.70;99.90
27200;DHT22;14714;48.106;11.546;2022-07-21T06:13:31;22.70;99.90
27200;DHT22;14714;48.106;11.546;2022-07-21T06:15:58;22.80;99.90
27200;DHT22;14714;48.106;11.546;2022-07-21T06:18:25;22.80;99.90
27200;DHT22;14714;48.106;11.546;2022-07-21T06:20:52;22.90;99.90
27200;DHT22;14714;48.106;11.546;2022-07-21T06:23:19;23.00;99.90
27200;DHT22;14714;48.106;11.546;2022-07-21T06:25:46;23.10;99.90
27200;DHT22;14714;48.106;11.546;2022-07-21T06:28:13;23.20;99.90
27200;DHT22;14714;48.106;11.546;2022-07-21T06:30:39;23.30;99.90
27200;DHT22;14714;48.106;11.546;2022-07-21T06:33:06;23.50;99.90
27200;DHT22;14714;48.106;11.546;2022-07-21T06:35:33;23.70;99.90
27200;DHT22;14714;48.106;11.546;2022-07-21T06:38:00;23.80;99.90
27200;DHT22;14714;48.106;11.546;2022-07-21T06:40:27;23.80;99.90
27200;DHT22;14714;48.106;11.546;2022-07-21T06:42:54;23.80;99.90
27200;DHT22;14714;48.106;11.546;2022-07-21T06:45:41;23.60;99.90
27200;DHT22;14714;48.106;11.546;2022-07-21T06:48:08;23.30;99.90
27200;DHT22;14714;48.106;11.546;2022-07-21T06:50:36;23.20;99.90
27200;DHT22;14714;48.106;11.546;2022-07-21T06:53:04;23.10;99.90
27200;DHT22;14714;48.106;11.546;2022-07-21T06:55:31;23.00;99.90
27200;DHT22;14714;48.106;11.546;2022-07-21T06:58:10;23.00;99.90
27200;DHT22;14714;48.106;11.546;2022-07-21T07:00:36;23.00;99.90
27200;DHT22;14714;48.106;11.546;2022-07-21T07:03:05;23.00;99.90
27200;DHT22;14714;48.106;11.546;2022-07-21T07:05:34;23.10;99.90
27200;DHT22;14714;48.106;11.546;2022-07-21T07:08:01;23.10;99.90
27200;DHT22;14714;48.106;11.546;2022-07-21T07:10:28;23.20;99.90
27200;DHT22;14714;48.106;11.546;2022-07-21T07:12:55;23.20;99.90
27200;DHT22;14714;48.106;11.546;2022-07-21T07:15:42;23.20;99.90
27200;DHT22;14714;48.106;11.546;2022-07-21T07:18:09;23.30;99.90
27200;DHT22;14714;48.106;11.546;2022-07-21T07:20:36;23.30;99.90
27200;DHT22;14714;48.106;11.546;2022-07-21T07:23:04;23.30;99.90
27200;DHT22;14714;48.106;11.546;2022-07-21T07:25:31;23.40;99.90
27200;DHT22;14714;48.106;11.546;2022-07-21T07:27:58;23.30;99.90
27200;DHT22;14714;48.106;11.546;2022-07-21T07:30:25;23.40;99.90
27200;DHT22;14714;48.106;11.546;2022-07-21T07:32:52;23.50;99.90
27200;DHT22;14714;48.106;11.546;2022-07-21T07:35:19;23.60;99.90
27200;DHT22;14714;48.106;11.546;2022-07-21T07:37:46;23.70;99.90
27200;DHT22;14714;48.106;11.546;2022-07-21T07:40:16;23.80;99.90
27200;DHT22;14714;48.106;11.546;2022-07-21T07:42:44;23.90;99.90
27200;DHT22;14714;48.106;11.546;2022-07-21T07:45:11;24.00;99.90
27200;DHT22;14714;48.106;11.546;2022-07-21T07:47:39;24.10;99.90
27200;DHT22;14714;48.106;11.546;2022-07-21T07:50:07;24.20;99.90
27200;DHT22;14714;48.106;11.546;2022-07-21T07:52:39;24.20;99.90
27200;DHT22;14714;48.106;11.546;2022-07-21T07:55:06;24.20;99.90
27200;DHT22;14714;48.106;11.546;2022-07-21T07:57:38;24.30;99.90
27200;DHT22;14714;48.106;11.546;2022-07-21T08:00:08;24.20;99.90
27200;DHT22;14714;48.106;11.546;2022-07-21T08:02:55;24.10;99.90
27200;DHT22;14714;48.106;11.546;2022-07-21T08:05:22;24.00;99.90
27200;DHT22;14714;48.106;11.546;2022-07-21T08:07:49;23.80;99.90
27200;DHT22;14714;48.106;11.546;2022-07-21T08:10:16;23.80;99.90
27200;DHT22;14714;48.106;11.546;2022-07-21T08:13:03;23.70;99.90
27200;DHT22;14714;48.106;11.546;2022-07-21T08:15:33;23.70;99.90
27200;DHT22;14714;48.106;11.546;2022-07-21T08:18:01;23.70;99.90
27200;DHT22;14714;48.106;11.546;2022-07-21T08:20:28;23.70;99.90
27200;DHT22;14714;48.106;11.546;2022-07-21T08:22:55;23.70;99.90
27200;DHT22;14714;48.106;11.546;2022-07-21T08:25:21;23.70;99.90
27200;DHT22;14714;48.106;11.546;2022-07-21T08:27:48;23.60;99.90
27200;DHT22;14714;48.106;11.546;2022-07-21T08:30:15;23.50;99.90
27200;DHT22;14714;48.106;11.546;2022-07-21T08:32:42;23.30;99.90
27200;DHT22;14714;48.106;11.546;2022-07-21T08:35:09;23.20;99.90
27200;DHT22;14714;48.106;11.546;2022-07-21T08:37:39;23.00;99.90
27200;DHT22;14714;48.106;11.546;2022-07-21T08:40:09;23.00;99.90
27200;DHT22;14714;48.106;11.546;2022-07-21T08:42:37;22.90;99.90
27200;DHT22;14714;48.106;11.546;2022-07-21T08:45:04;22.90;99.90
27200;DHT22;14714;48.106;11.546;2022-07-21T08:47:32;22.80;99.90
27200;DHT22;14714;48.106;11.546;2022-07-21T08:49:59;22.80;99.90
27200;DHT22;14714;48.106;11.546;2022-07-21T08:52:26;22.70;99.90
27200;DHT22;14714;48.106;11.546;2022-07-21T08:54:56;22.70;99.90
27200;DHT22;14714;48.106;11.546;2022-07-21T08:57:23;22.60;99.90
27200;DHT22;14714;48.106;11.546;2022-07-21T08:59:50;22.60;99.90
27200;DHT22;14714;48.106;11.546;2022-07-21T09:02:27;22.60;99.90
27200;DHT22;14714;48.106;11.546;2022-07-21T09:04:55;22.50;99.90
27200;DHT22;14714;48.106;11.546;2022-07-21T09:07:22;22.50;99.90
27200;DHT22;14714;48.106;11.546;2022-07-21T09:09:58;22.40;99.90
27200;DHT22;14714;48.106;11.546;2022-07-21T09:12:25;22.40;99.90
27200;DHT22;14714;48.106;11.546;2022-07-21T09:15:12;22.40;99.90
27200;DHT22;14714;48.106;11.546;2022-07-21T09:17:39;22.30;99.90
27200;DHT22;14714;48.106;11.546;2022-07-21T09:20:26;22.30;99.90
27200;DHT22;14714;48.106;11.546;2022-07-21T09:23:06;22.40;99.90
27200;DHT22;14714;48.106;11.546;2022-07-21T09:25:34;22.30;99.90
27200;DHT22;14714;48.106;11.546;2022-07-21T09:28:12;22.30;99.90
27200;DHT22;14714;48.106;11.546;2022-07-21T09:31:05;22.30;99.90
27200;DHT22;14714;48.106;11.546;2022-07-21T09:36:06;22.30;99.90
27200;DHT22;14714;48.106;11.546;2022-07-21T09:38:38;22.20;99.90
27200;DHT22;14714;48.106;11.546;2022-07-21T09:41:12;22.20;99.90
27200;DHT22;14714;48.106;11.546;2022-07-21T09:43:45;22.20;99.90
27200;DHT22;14714;48.106;11.546;2022-07-21T09:48:45;22.10;99.90
27200;DHT22;14714;48.106;11.546;2022-07-21T09:54:06;21.90;99.90
27200;DHT22;14714;48.106;11.546;2022-07-21T09:56:35;21.90;99.90
27200;DHT22;14714;48.106;11.546;2022-07-21T09:59:04;21.80;99.90
27200;DHT22;14714;48.106;11.546;2022-07-21T10:01:31;21.80;99.90
27200;DHT22;14714;48.106;11.546;2022-07-21T10:03:59;21.70;99.90
27200;DHT22;14714;48.106;11.546;2022-07-21T10:06:32;21.70;99.90
27200;DHT22;14714;48.106;11.546;2022-07-21T10:09:02;21.60;99.90
27200;DHT22;14714;48.106;11.546;2022-07-21T10:11:29;21.60;99.90
27200;DHT22;14714;48.106;11.546;2022-07-21T10:13:56;21.60;99.90
27200;DHT22;14714;48.106;11.546;2022-07-21T10:16:23;21.60;99.90
27200;DHT22;14714;48.106;11.546;2022-07-21T10:19:13;21.50;99.90
27200;DHT22;14714;48.106;11.546;2022-07-21T10:24:30;21.40;99.90
27200;DHT22;14714;48.106;11.546;2022-07-21T10:27:11;21.40;99.90
27200;DHT22;14714;48.106;11.546;2022-07-21T10:32:16;21.50;99.90
27200;DHT22;14714;48.106;11.546;2022-07-21T10:34:43;21.50;99.90
27200;DHT22;14714;48.106;11.546;2022-07-21T10:37:10;21.50;99.90
27200;DHT22;14714;48.106;11.546;2022-07-21T10:39:38;21.60;99.90
27200;DHT22;14714;48.106;11.546;2022-07-21T10:42:15;21.50;99.90
27200;DHT22;14714;48.106;11.546;2022-07-21T10:44:46;21.60;99.90
27200;DHT22;14714;48.106;11.546;2022-07-21T10:47:21;21.60;99.90
27200;DHT22;14714;48.106;11.546;2022-07-21T10:49:54;21.70;99.90
27200;DHT22;14714;48.106;11.546;2022-07-21T10:55:14;21.90;99.90
27200;DHT22;14714;48.106;11.546;2022-07-21T10:57:45;22.00;99.90
27200;DHT22;14714;48.106;11.546;2022-07-21T11:00:23;22.10;99.90
27200;DHT22;14714;48.106;11.546;2022-07-21T11:02:57;22.20;99.90
27200;DHT22;14714;48.106;11.546;2022-07-21T11:05:32;22.30;99.90
27200;DHT22;14714;48.106;11.546;2022-07-21T11:08:18;22.30;99.90
27200;DHT22;14714;48.106;11.546;2022-07-21T11:10:52;22.40;99.90
27200;DHT22;14714;48.106;11.546;2022-07-21T11:13:21;22.50;99.90
27200;DHT22;14714;48.106;11.546;2022-07-21T11:16:00;22.60;99.90
27200;DHT22;14714;48.106;11.546;2022-07-21T11:18:30;22.70;99.90
27200;DHT22;14714;48.106;11.546;2022-07-21T11:21:01;22.80;99.90
27200;DHT22;14714;48.106;11.546;2022-07-21T11:26:09;22.90;99.90
27200;DHT22;14714;48.106;11.546;2022-07-21T11:28:36;22.80;99.90
27200;DHT22;14714;48.106;11.546;2022-07-21T11:31:15;22.80;99.90
27200;DHT22;14714;48.106;11.546;2022-07-21T11:33:44;22.80;99.90
27200;DHT22;14714;48.106;11.546;2022-07-21T11:36:23;22.80;99.90
27200;DHT22;14714;48.106;11.546;2022-07-21T11:39:06;22.80;99.90
27200;DHT22;14714;48.106;11.546;2022-07-21T11:41:34;22.90;99.90
27200;DHT22;14714;48.106;11.546;2022-07-21T11:44:04;22.90;99.90
27200;DHT22;14714;48.106;11.546;2022-07-21T11:46:55;22.90;99.90
27200;DHT22;14714;48.106;11.546;2022-07-21T11:49:22;22.90;99.90
27200;DHT22;14714;48.106;11.546;2022-07-21T11:52:13;22.90;99.90
27200;DHT22;14714;48.106;11.546;2022-07-21T11:54:49;22.90;99.90
27200;DHT22;14714;48.106;11.546;2022-07-21T11:57:19;22.80;99.90
27200;DHT22;14714;48.106;11.546;2022-07-21T11:59:47;22.80;99.90
27200;DHT22;14714;48.106;11.546;2022-07-21T12:02:21;22.90;99.90
27200;DHT22;14714;48.106;11.546;2022-07-21T12:04:55;22.90;99.90
27200;DHT22;14714;48.106;11.546;2022-07-21T12:07:41;23.00;99.90
27200;DHT22;14714;48.106;11.546;2022-07-21T12:10:14;23.00;99.90
27200;DHT22;14714;48.106;11.546;2022-07-21T12:12:45;22.90;99.90
27200;DHT22;14714;48.106;11.546;2022-07-21T12:15:22;23.00;99.90
27200;DHT22;14714;48.106;11.546;2022-07-21T12:17:52;23.00;99.90
27200;DHT22;14714;48.106;11.546;2022-07-21T12:23:07;23.10;99.90
27200;DHT22;14714;48.106;11.546;2022-07-21T12:25:44;23.10;99.90
27200;DHT22;14714;48.106;11.546;2022-07-21T12:28:11;23.10;99.90
27200;DHT22;14714;48.106;11.546;2022-07-21T12:33:28;23.10;99.90
27200;DHT22;14714;48.106;11.546;2022-07-21T12:36:03;23.20;99.90
27200;DHT22;14714;48.106;11.546;2022-07-21T12:38:39;23.20;99.90
27200;DHT22;14714;48.106;11.546;2022-07-21T12:41:07;23.30;99.90
27200;DHT22;14714;48.106;11.546;2022-07-21T12:43:59;23.30;99.90
27200;DHT22;14714;48.106;11.546;2022-07-21T12:46:32;23.30;99.90
27200;DHT22;14714;48.106;11.546;2022-07-21T12:49:06;23.30;99.90
27200;DHT22;14714;48.106;11.546;2022-07-21T12:51:39;23.40;99.90
27200;DHT22;14714;48.106;11.546;2022-07-21T12:54:06;23.40;99.90
27200;DHT22;14714;48.106;11.546;2022-07-21T12:56:34;23.50;99.90
27200;DHT22;14714;48.106;11.546;2022-07-21T12:59:02;23.60;99.90
27200;DHT22;14714;48.106;11.546;2022-07-21T13:01:31;23.70;99.90
27200;DHT22;14714;48.106;11.546;2022-07-21T13:03:59;23.90;99.90
27200;DHT22;14714;48.106;11.546;2022-07-21T13:06:26;24.00;99.90
27200;DHT22;14714;48.106;11.546;2022-07-21T13:08:53;24.20;99.90
27200;DHT22;14714;48.106;11.546;2022-07-21T13:11:20;24.40;99.90
27200;DHT22;14714;48.106;11.546;2022-07-21T13:13:48;24.60;99.90
27200;DHT22;14714;48.106;11.546;2022-07-21T13:16:17;24.70;99.90
27200;DHT22;14714;48.106;11.546;2022-07-21T13:18:44;24.80;99.90
27200;DHT22;14714;48.106;11.546;2022-07-21T13:21:11;25.00;99.90
27200;DHT22;14714;48.106;11.546;2022-07-21T13:23:38;25.00;99.90
27200;DHT22;14714;48.106;11.546;2022-07-21T13:26:04;25.00;99.90
27200;DHT22;14714;48.106;11.546;2022-07-21T13:28:34;24.90;99.90
27200;DHT22;14714;48.106;11.546;2022-07-21T13:31:03;24.80;99.90
27200;DHT22;14714;48.106;11.546;2022-07-21T13:33:30;24.80;99.90
27200;DHT22;14714;48.106;11.546;2022-07-21T13:35:57;24.90;99.90
27200;DHT22;14714;48.106;11.546;2022-07-21T13:38:24;24.90;99.90
27200;DHT22;14714;48.106;11.546;2022-07-21T13:40:50;25.00;99.90
27200;DHT22;14714;48.106;11.546;2022-07-21T13:43:37;25.00;99.90
27200;DHT22;14714;48.106;11.546;2022-07-21T13:46:06;25.00;99.90
27200;DHT22;14714;48.106;11.546;2022-07-21T13:48:33;25.00;99.90
27200;DHT22;14714;48.106;11.546;2022-07-21T13:51:09;25.00;99.90
27200;DHT22;14714;48.106;11.546;2022-07-21T13:53:36;25.00;99.90
27200;DHT22;14714;48.106;11.546;2022-07-21T13:56:03;24.90;99.90
27200;DHT22;14714;48.106;11.546;2022-07-21T13:58:30;24.90;99.90
27200;DHT22;14714;48.106;11.546;2022-07-21T14:00:57;24.90;99.90
27200;DHT22;14714;48.106;11.546;2022-07-21T14:03:24;25.00;99.90
27200;DHT22;14714;48.106;11.546;2022-07-21T14:05:51;25.00;99.90
27200;DHT22;14714;48.106;11.546;2022-07-21T14:08:18;25.10;99.90
27200;DHT22;14714;48.106;11.546;2022-07-21T14:10:45;25.20;99.90
27200;DHT22;14714;48.106;11.546;2022-07-21T14:13:12;25.20;99.90
27200;DHT22;14714;48.106;11.546;2022-07-21T14:15:39;25.30;99.90
27200;DHT22;14714;48.106;11.546;2022-07-21T14:18:06;25.40;99.90
27200;DHT22;14714;48.106;11.546;2022-07-21T14:20:33;25.50;99.90
27200;DHT22;14714;48.106;11.546;2022-07-21T14:23:00;25.50;99.90
27200;DHT22;14714;48.106;11.546;2022-07-21T14:25:27;25.70;99.90
27200;DHT22;14714;48.106;11.546;2022-07-21T14:27:55;25.80;99.90
27200;DHT22;14714;48.106;11.546;2022-07-21T14:30:25;26.00;99.90
27200;DHT22;14714;48.106;11.546;2022-07-21T14:32:54;26.20;99.90
27200;DHT22;14714;48.106;11.546;2022-07-21T14:35:21;26.50;99.90
27200;DHT22;14714;48.106;11.546;2022-07-21T14:37:49;26.70;99.20
27200;DHT22;14714;48.106;11.546;2022-07-21T14:40:18;26.70;98.50
27200;DHT22;14714;48.106;11.546;2022-07-21T14:42:46;26.70;96.80
27200;DHT22;14714;48.106;11.546;2022-07-21T14:45:15;26.60;96.20
27200;DHT22;14714;48.106;11.546;2022-07-21T14:47:52;26.60;96.60
27200;DHT22;14714;48.106;11.546;2022-07-21T14:50:21;26.50;96.60
27200;DHT22;14714;48.106;11.546;2022-07-21T14:52:57;26.50;94.20
27200;DHT22;14714;48.106;11.546;2022-07-21T14:55:25;26.50;94.60
27200;DHT22;14714;48.106;11.546;2022-07-21T14:57:53;26.50;95.10
27200;DHT22;14714;48.106;11.546;2022-07-21T15:00:21;26.60;93.80
27200;DHT22;14714;48.106;11.546;2022-07-21T15:02:51;26.70;94.80
27200;DHT22;14714;48.106;11.546;2022-07-21T15:05:18;26.90;94.80
27200;DHT22;14714;48.106;11.546;2022-07-21T15:07:45;27.00;93.90
27200;DHT22;14714;48.106;11.546;2022-07-21T15:10:12;27.10;93.30
27200;DHT22;14714;48.106;11.546;2022-07-21T15:12:39;27.20;93.50
27200;DHT22;14714;48.106;11.546;2022-07-21T15:15:06;27.20;92.10
27200;DHT22;14714;48.106;11.546;2022-07-21T15:17:33;27.20;92.00
27200;DHT22;14714;48.106;11.546;2022-07-21T15:20:00;27.20;92.00
27200;DHT22;14714;48.106;11.546;2022-07-21T15:22:27;27.20;92.50
27200;DHT22;14714;48.106;11.546;2022-07-21T15:24:57;27.20;93.00
27200;DHT22;14714;48.106;11.546;2022-07-21T15:27:26;27.10;93.30
27200;DHT22;14714;48.106;11.546;2022-07-21T15:29:52;27.00;93.00
27200;DHT22;14714;48.106;11.546;2022-07-21T15:32:19;26.80;92.90
27200;DHT22;14714;48.106;11.546;2022-07-21T15:34:46;26.70;92.50
27200;DHT22;14714;48.106;11.546;2022-07-21T15:37:13;26.70;93.20
27200;DHT22;14714;48.106;11.546;2022-07-21T15:39:40;26.60;93.80
27200;DHT22;14714;48.106;11.546;2022-07-21T15:42:08;26.70;93.60
27200;DHT22;14714;48.106;11.546;2022-07-21T15:44:36;26.60;93.90
27200;DHT22;14714;48.106;11.546;2022-07-21T15:47:05;26.60;94.20
27200;DHT22;14714;48.106;11.546;2022-07-21T15:49:33;26.70;93.60
27200;DHT22;14714;48.106;11.546;2022-07-21T15:52:00;26.70;93.90